Time,TemperatureF,DewpointF,PressureIn,WindDirection,WindDirectionDegrees,WindSpeedMPH,WindSpeedGustMPH,Humidity,HourlyPrecipIn,Conditions,Clouds,dailyrainin,SoftwareType,DateUTC
2013-03-02 00:11:00,14.0,-99.9,-100.00,SSW,198,4.0,5.0,-999,-99.99,,,-99.99,,2013-03-02 06:11:00,
2013-03-02 00:22:00,14.0,-99.9,-100.00,SSW,198,4.0,5.0,-999,-99.99,,,-99.99,,2013-03-02 06:22:00,
2013-03-02 00:32:00,14.0,-99.9,-100.00,SSW,198,4.0,5.0,-999,-99.99,,,-99.99,,2013-03-02 06:32:00,
2013-03-02 00:40:00,10.0,-99.9,-100.00,South,187,4.0,5.0,-999,-99.99,,,-99.99,,2013-03-02 06:40:00,
2013-03-02 01:11:00,10.0,-99.9,-100.00,South,187,4.0,5.0,-999,-99.99,,,-99.99,,2013-03-02 07:11:00,
2013-03-02 01:22:00,10.0,-99.9,-100.00,South,187,4.0,5.0,-999,-99.99,,,-99.99,,2013-03-02 07:22:00,
2013-03-02 01:32:00,10.0,-99.9,-100.00,South,187,4.0,5.0,-999,-99.99,,,-99.99,,2013-03-02 07:32:00,
2013-03-02 01:40:00,6.0,-99.9,-100.00,South,185,5.0,6.0,-999,-99.99,,,-99.99,,2013-03-02 07:40:00,
2013-03-02 02:11:00,6.0,-99.9,-100.00,South,185,5.0,6.0,-999,-99.99,,,-99.99,,2013-03-02 08:11:00,
2013-03-02 02:22:00,6.0,-99.9,-100.00,South,185,5.0,6.0,-999,-99.99,,,-99.99,,2013-03-02 08:22:00,
2013-03-02 02:32:00,6.0,-99.9,-100.00,South,185,5.0,6.0,-999,-99.99,,,-99.99,,2013-03-02 08:32:00,
2013-03-02 02:40:00,4.0,-99.9,-100.00,SSW,194,5.0,6.0,-999,-99.99,,,-99.99,,2013-03-02 08:40:00,
2013-03-02 03:11:00,4.0,-99.9,-100.00,SSW,194,5.0,6.0,-999,-99.99,,,-99.99,,2013-03-02 09:11:00,
2013-03-02 03:22:00,4.0,-99.9,-100.00,SSW,194,5.0,6.0,-999,-99.99,,,-99.99,,2013-03-02 09:22:00,
2013-03-02 03:32:00,4.0,-99.9,-100.00,SSW,194,5.0,6.0,-999,-99.99,,,-99.99,,2013-03-02 09:32:00,
2013-03-02 03:40:00,2.0,-99.9,-100.00,SSW,196,6.0,7.0,-999,-99.99,,,-99.99,,2013-03-02 09:40:00,
2013-03-02 04:16:00,2.0,-99.9,-100.00,SSW,196,6.0,7.0,-999,-99.99,,,-99.99,,2013-03-02 10:16:00,
2013-03-02 04:22:00,2.0,-99.9,-100.00,SSW,196,6.0,7.0,-999,-99.99,,,-99.99,,2013-03-02 10:22:00,
2013-03-02 04:32:00,2.0,-99.9,-100.00,SSW,196,6.0,7.0,-999,-99.99,,,-99.99,,2013-03-02 10:32:00,
2013-03-02 04:40:00,1.0,-99.9,-100.00,SSW,195,6.0,8.0,-999,-99.99,,,-99.99,,2013-03-02 10:40:00,
2013-03-02 05:11:00,1.0,-99.9,-100.00,SSW,195,6.0,8.0,-999,-99.99,,,-99.99,,2013-03-02 11:11:00,
2013-03-02 05:22:00,1.0,-99.9,-100.00,SSW,195,6.0,8.0,-999,-99.99,,,-99.99,,2013-03-02 11:22:00,
2013-03-02 05:32:00,1.0,-99.9,-100.00,SSW,195,6.0,8.0,-999,-99.99,,,-99.99,,2013-03-02 11:32:00,
2013-03-02 06:40:00,1.0,-99.9,-100.00,SSW,196,5.0,7.0,-999,-99.99,,,-99.99,,2013-03-02 12:40:00,
2013-03-02 07:12:00,1.0,-99.9,-100.00,SSW,196,5.0,7.0,-999,-99.99,,,-99.99,,2013-03-02 13:12:00,
2013-03-02 07:22:00,1.0,-99.9,-100.00,SSW,196,5.0,7.0,-999,-99.99,,,-99.99,,2013-03-02 13:22:00,
2013-03-02 07:32:00,1.0,-99.9,-100.00,SSW,196,5.0,7.0,-999,-99.99,,,-99.99,,2013-03-02 13:32:00,
2013-03-02 07:40:00,2.0,-99.9,-100.00,SSW,200,4.0,5.0,-999,-99.99,,,-99.99,,2013-03-02 13:40:00,
2013-03-02 08:11:00,2.0,-99.9,-100.00,SSW,200,4.0,5.0,-999,-99.99,,,-99.99,,2013-03-02 14:11:00,
2013-03-02 08:22:00,2.0,-99.9,-100.00,SSW,200,4.0,5.0,-999,-99.99,,,-99.99,,2013-03-02 14:22:00,
2013-03-02 08:32:00,2.0,-99.9,-100.00,SSW,200,4.0,5.0,-999,-99.99,,,-99.99,,2013-03-02 14:32:00,
2013-03-02 08:40:00,13.0,-99.9,-100.00,South,183,4.0,6.0,-999,-99.99,,,-99.99,,2013-03-02 14:40:00,
2013-03-02 09:12:00,13.0,-99.9,-100.00,South,183,4.0,6.0,-999,-99.99,,,-99.99,,2013-03-02 15:12:00,
2013-03-02 09:22:00,13.0,-99.9,-100.00,South,183,4.0,6.0,-999,-99.99,,,-99.99,,2013-03-02 15:22:00,
2013-03-02 09:32:00,13.0,-99.9,-100.00,South,183,4.0,6.0,-999,-99.99,,,-99.99,,2013-03-02 15:32:00,
2013-03-02 09:40:00,19.0,-99.9,-100.00,NW,308,3.0,5.0,-999,-99.99,,,-99.99,,2013-03-02 15:40:00,
2013-03-02 10:12:00,19.0,-99.9,-100.00,NW,308,3.0,5.0,-999,-99.99,,,-99.99,,2013-03-02 16:12:00,
2013-03-02 10:22:00,19.0,-99.9,-100.00,NW,308,3.0,5.0,-999,-99.99,,,-99.99,,2013-03-02 16:22:00,
2013-03-02 10:32:00,19.0,-99.9,-100.00,NW,308,3.0,5.0,-999,-99.99,,,-99.99,,2013-03-02 16:32:00,
2013-03-02 11:12:00,27.0,-99.9,-100.00,North,-999,0.0,2.0,-999,-99.99,,,-99.99,,2013-03-02 17:12:00,
2013-03-02 11:22:00,27.0,-99.9,-100.00,North,-999,0.0,2.0,-999,-99.99,,,-99.99,,2013-03-02 17:22:00,
2013-03-02 11:32:00,27.0,-99.9,-100.00,NW,316,2.0,28.0,-999,-99.99,,,-99.99,,2013-03-02 17:32:00,
2013-03-02 11:40:00,25.0,-99.9,-100.00,North,7,5.0,10.0,-999,-99.99,,,-99.99,,2013-03-02 17:40:00,
2013-03-02 11:42:00,27.0,-99.9,-100.00,NW,316,2.0,28.0,-999,-99.99,,,-99.99,,2013-03-02 17:42:00,
2013-03-02 11:52:00,27.0,-99.9,-100.00,NW,316,2.0,28.0,-999,-99.99,,,-99.99,,2013-03-02 17:52:00,
2013-03-02 12:02:00,27.0,-99.9,-100.00,NW,316,2.0,28.0,-999,-99.99,,,-99.99,,2013-03-02 18:02:00,
2013-03-02 12:12:00,25.0,-99.9,-100.00,North,7,5.0,10.0,-999,-99.99,,,-99.99,,2013-03-02 18:12:00,
2013-03-02 12:22:00,25.0,-99.9,-100.00,North,7,5.0,10.0,-999,-99.99,,,-99.99,,2013-03-02 18:22:00,
2013-03-02 12:32:00,25.0,-99.9,-100.00,North,7,5.0,10.0,-999,-99.99,,,-99.99,,2013-03-02 18:32:00,
2013-03-02 12:40:00,24.0,-99.9,-100.00,North,360,8.0,10.0,-999,-99.99,,,-99.99,,2013-03-02 18:40:00,
2013-03-02 13:12:00,24.0,-99.9,-100.00,North,360,8.0,10.0,-999,-99.99,,,-99.99,,2013-03-02 19:12:00,
2013-03-02 13:22:00,24.0,-99.9,-100.00,North,360,8.0,10.0,-999,-99.99,,,-99.99,,2013-03-02 19:22:00,
2013-03-02 13:32:00,24.0,-99.9,-100.00,North,360,8.0,10.0,-999,-99.99,,,-99.99,,2013-03-02 19:32:00,
2013-03-02 13:40:00,25.0,-99.9,-100.00,North,9,7.0,11.0,-999,-99.99,,,-99.99,,2013-03-02 19:40:00,
2013-03-02 14:12:00,25.0,-99.9,-100.00,North,9,7.0,11.0,-999,-99.99,,,-99.99,,2013-03-02 20:12:00,
2013-03-02 14:22:00,25.0,-99.9,-100.00,North,9,7.0,11.0,-999,-99.99,,,-99.99,,2013-03-02 20:22:00,
2013-03-02 14:32:00,25.0,-99.9,-100.00,North,9,7.0,11.0,-999,-99.99,,,-99.99,,2013-03-02 20:32:00,
2013-03-02 14:40:00,25.0,-99.9,-100.00,North,5,7.0,8.0,-999,-99.99,,,-99.99,,2013-03-02 20:40:00,
2013-03-02 15:12:00,25.0,-99.9,-100.00,North,5,7.0,8.0,-999,-99.99,,,-99.99,,2013-03-02 21:12:00,
2013-03-02 15:22:00,25.0,-99.9,-100.00,North,5,7.0,8.0,-999,-99.99,,,-99.99,,2013-03-02 21:22:00,
2013-03-02 15:32:00,25.0,-99.9,-100.00,North,5,7.0,8.0,-999,-99.99,,,-99.99,,2013-03-02 21:32:00,
2013-03-02 15:40:00,25.0,-99.9,-100.00,North,356,6.0,9.0,-999,-99.99,,,-99.99,,2013-03-02 21:40:00,
2013-03-02 16:12:00,25.0,-99.9,-100.00,North,356,6.0,9.0,-999,-99.99,,,-99.99,,2013-03-02 22:12:00,
2013-03-02 16:22:00,25.0,-99.9,-100.00,North,356,6.0,9.0,-999,-99.99,,,-99.99,,2013-03-02 22:22:00,
2013-03-02 16:32:00,25.0,-99.9,-100.00,North,356,6.0,9.0,-999,-99.99,,,-99.99,,2013-03-02 22:32:00,
2013-03-02 16:40:00,25.0,-99.9,-100.00,NE,38,6.0,8.0,-999,-99.99,,,-99.99,,2013-03-02 22:40:00,
2013-03-02 17:12:00,25.0,-99.9,-100.00,NE,38,6.0,8.0,-999,-99.99,,,-99.99,,2013-03-02 23:12:00,
2013-03-02 17:22:00,25.0,-99.9,-100.00,NE,38,6.0,8.0,-999,-99.99,,,-99.99,,2013-03-02 23:22:00,
2013-03-02 17:32:00,25.0,-99.9,-100.00,NE,38,6.0,8.0,-999,-99.99,,,-99.99,,2013-03-02 23:32:00,
2013-03-02 17:40:00,20.0,-99.9,-100.00,NE,52,6.0,7.0,-999,-99.99,,,-99.99,,2013-03-02 23:40:00,
2013-03-02 18:11:00,20.0,-99.9,-100.00,NE,52,6.0,7.0,-999,-99.99,,,-99.99,,2013-03-03 00:11:00,
2013-03-02 18:23:00,20.0,-99.9,-100.00,NE,52,6.0,7.0,-999,-99.99,,,-99.99,,2013-03-03 00:23:00,
2013-03-02 18:32:00,20.0,-99.9,-100.00,NE,52,6.0,7.0,-999,-99.99,,,-99.99,,2013-03-03 00:32:00,
2013-03-02 18:40:00,17.0,-99.9,-100.00,SE,128,2.0,3.0,-999,-99.99,,,-99.99,,2013-03-03 00:40:00,
2013-03-02 19:12:00,17.0,-99.9,-100.00,SE,128,2.0,3.0,-999,-99.99,,,-99.99,,2013-03-03 01:12:00,
2013-03-02 19:22:00,17.0,-99.9,-100.00,SE,128,2.0,3.0,-999,-99.99,,,-99.99,,2013-03-03 01:22:00,
2013-03-02 19:32:00,17.0,-99.9,-100.00,SE,128,2.0,3.0,-999,-99.99,,,-99.99,,2013-03-03 01:32:00,
2013-03-02 19:40:00,17.0,-99.9,-100.00,SSE,156,3.0,3.0,-999,-99.99,,,-99.99,,2013-03-03 01:40:00,
2013-03-02 20:11:00,17.0,-99.9,-100.00,SSE,156,3.0,3.0,-999,-99.99,,,-99.99,,2013-03-03 02:11:00,
2013-03-02 20:22:00,17.0,-99.9,-100.00,SSE,156,3.0,3.0,-999,-99.99,,,-99.99,,2013-03-03 02:22:00,
2013-03-02 20:32:00,17.0,-99.9,-100.00,SSE,156,3.0,3.0,-999,-99.99,,,-99.99,,2013-03-03 02:32:00,
2013-03-02 21:40:00,9.0,-99.9,-100.00,South,191,6.0,7.0,-999,-99.99,,,-99.99,,2013-03-03 03:40:00,
2013-03-02 22:11:00,9.0,-99.9,-100.00,South,191,6.0,7.0,-999,-99.99,,,-99.99,,2013-03-03 04:11:00,
2013-03-02 22:22:00,9.0,-99.9,-100.00,South,191,6.0,7.0,-999,-99.99,,,-99.99,,2013-03-03 04:22:00,
2013-03-02 22:32:00,9.0,-99.9,-100.00,South,191,6.0,7.0,-999,-99.99,,,-99.99,,2013-03-03 04:32:00,
2013-03-02 22:40:00,4.0,-99.9,-100.00,South,188,5.0,7.0,-999,-99.99,,,-99.99,,2013-03-03 04:40:00,
2013-03-02 23:12:00,4.0,-99.9,-100.00,South,188,5.0,7.0,-999,-99.99,,,-99.99,,2013-03-03 05:12:00,
2013-03-02 23:22:00,4.0,-99.9,-100.00,South,188,5.0,7.0,-999,-99.99,,,-99.99,,2013-03-03 05:22:00,
2013-03-02 23:32:00,4.0,-99.9,-100.00,South,188,5.0,7.0,-999,-99.99,,,-99.99,,2013-03-03 05:32:00,
2013-03-02 23:40:00,2.0,-99.9,-100.00,South,191,5.0,7.0,-999,-99.99,,,-99.99,,2013-03-03 05:40:00,